Time;durP1;ratioP1;P1;durP2;ratioP2;P2;SDS_P1;SDS_P2;PMS_P1;PMS_P2;Temp;Humidity;BMP_temperature;BMP_pressure;BME280_temperature;BME280_humidity;BME280_pressure;Samples;Min_cycle;Max_cycle;Signal;HPM_P1;HPM_P2
2022/05/29 00:02:31;;;;;;;2.22;1.20;;;;;;;;;;6317188;28;20051;-67
2022/05/29 00:05:34;;;;;;;1.40;1.10;;;;;;;;;;6317023;28;20106;-68
2022/05/29 00:08:38;;;;;;;2.05;0.90;;;;;;;;;;6315143;28;20109;-68
2022/05/29 00:11:40;;;;;;;1.73;1.00;;;;;;;;;;6319311;28;20150;-69
2022/05/29 00:14:42;;;;;;;4.13;1.17;;;;;;;;;;6318171;28;20055;-69
2022/05/29 00:17:45;;;;;;;1.05;0.90;;;;;;;;;;6316683;28;20216;-68
2022/05/29 00:20:50;;;;;;;4.72;1.17;;;;;;;;;;6316378;28;20071;-68
2022/05/29 00:23:53;;;;;;;1.38;1.02;;;;;;;;;;6313824;28;20048;-69
2022/05/29 00:26:56;;;;;;;4.55;1.30;;;;;;;;;;6318130;28;20117;-70
2022/05/29 00:29:58;;;;;;;2.22;1.17;;;;;;;;;;6320929;28;20083;-70
2022/05/29 00:33:01;;;;;;;4.88;1.42;;;;;;;;;;6323853;28;20066;-70
2022/05/29 00:36:03;;;;;;;4.70;1.30;;;;;;;;;;6314286;28;20048;-69
2022/05/29 00:39:06;;;;;;;7.50;2.17;;;;;;;;;;6317351;28;20089;-70
2022/05/29 00:42:08;;;;;;;14.68;3.25;;;;;;;;;;6319333;28;20048;-70
2022/05/29 00:45:16;;;;;;;3.65;1.50;;;;;;;;;;6317917;27;20105;-71
2022/05/29 00:48:19;;;;;;;3.97;1.73;;;;;;;;;;6318745;28;20063;-71
2022/05/29 00:51:23;;;;;;;8.13;2.45;;;;;;;;;;6313219;28;20109;-71
2022/05/29 00:54:25;;;;;;;4.65;2.03;;;;;;;;;;6315749;28;20132;-70
2022/05/29 00:57:29;;;;;;;10.27;2.25;;;;;;;;;;6316232;28;20055;-71
2022/05/29 01:00:30;;;;;;;;;;;;;;;;;;6318463;28;20189;-71
2022/05/29 01:03:33;;;;;;;4.30;1.90;;;;;;;;;;6315065;28;19942;-70
2022/05/29 01:06:35;;;;;;;3.13;1.92;;;;;;;;;;6314711;28;20331;-71
2022/05/29 01:09:38;;;;;;;4.35;2.42;;;;;;;;;;6314823;28;20040;-73
2022/05/29 01:12:45;;;;;;;6.13;2.47;;;;;;;;;;6315958;27;20077;-73
2022/05/29 01:15:51;;;;;;;6.65;2.58;;;;;;;;;;6319490;28;20094;-71
2022/05/29 01:19:03;;;;;;;4.68;2.05;;;;;;;;;;6320403;28;20052;-73
2022/05/29 01:22:20;;;;;;;4.93;2.95;;;;;;;;;;6317526;28;20040;-72
2022/05/29 01:26:15;;;;;;;16.40;2.42;;;;;;;;;;6317414;28;20049;-72
2022/05/29 01:29:18;;;;;;;;;;;;;;;;;;6314198;28;20058;-71
2022/05/29 01:32:27;;;;;;;3.22;2.65;;;;;;;;;;6315701;28;20203;-71
2022/05/29 01:35:34;;;;;;;6.68;2.80;;;;;;;;;;6314613;28;20075;-71
2022/05/29 01:38:41;;;;;;;7.25;2.70;;;;;;;;;;6320317;28;20063;-72
2022/05/29 01:41:48;;;;;;;5.45;2.70;;;;;;;;;;6320657;28;20351;-71
2022/05/29 01:44:55;;;;;;;5.45;2.63;;;;;;;;;;6316772;28;20051;-71
2022/05/29 01:48:02;;;;;;;8.55;3.20;;;;;;;;;;6318882;28;20062;-70
2022/05/29 01:51:07;;;;;;;3.92;2.63;;;;;;;;;;6323231;28;20115;-70
2022/05/29 01:54:11;;;;;;;5.10;2.70;;;;;;;;;;6321761;28;20215;-71
2022/05/29 01:57:15;;;;;;;;;;;;;;;;;;6320187;28;20048;-70
2022/05/29 02:00:20;;;;;;;5.38;2.38;;;;;;;;;;6314892;28;19931;-71
2022/05/29 02:03:28;;;;;;;5.38;2.78;;;;;;;;;;6313328;28;20343;-70
2022/05/29 02:07:47;;;;;;;2.53;2.30;;;;;;;;;;6316431;28;20080;-70
2022/05/29 02:10:00;;;;;;;3.05;2.60;;;;;;;;;;6316139;28;20075;-72
2022/05/29 02:13:07;;;;;;;4.78;2.85;;;;;;;;;;6316039;28;20059;-69
2022/05/29 02:16:13;;;;;;;3.03;2.25;;;;;;;;;;6314273;28;20051;-70
2022/05/29 02:19:17;;;;;;;3.55;2.53;;;;;;;;;;6317671;27;20128;-70
2022/05/29 02:22:23;;;;;;;2.90;2.55;;;;;;;;;;6317956;28;20052;-70
2022/05/29 02:25:27;;;;;;;5.55;2.42;;;;;;;;;;6319879;28;20063;-70
2022/05/29 02:28:32;;;;;;;2.50;2.20;;;;;;;;;;6322964;28;20227;-70
2022/05/29 02:31:42;;;;;;;2.83;2.42;;;;;;;;;;6321194;28;20056;-70
2022/05/29 02:34:48;;;;;;;2.92;2.28;;;;;;;;;;6316762;28;20051;-70
2022/05/29 02:37:54;;;;;;;4.00;2.42;;;;;;;;;;6318675;28;20058;-70
2022/05/29 02:41:00;;;;;;;4.43;2.47;;;;;;;;;;6323387;28;20124;-70
2022/05/29 02:44:06;;;;;;;2.65;2.25;;;;;;;;;;6319646;28;20112;-70
2022/05/29 02:47:21;;;;;;;3.80;2.45;;;;;;;;;;6323290;28;20052;-70
2022/05/29 02:50:30;;;;;;;4.20;2.63;;;;;;;;;;6321224;28;20101;-70
2022/05/29 02:53:33;;;;;;;3.20;2.30;;;;;;;;;;6316946;28;20056;-70
2022/05/29 02:56:35;;;;;;;4.70;2.55;;;;;;;;;;6318069;28;20052;-70
2022/05/29 02:59:40;;;;;;;2.80;2.00;;;;;;;;;;6321837;28;20044;-70
2022/05/29 03:02:57;;;;;;;3.70;2.40;;;;;;;;;;6319675;27;20044;-70
2022/05/29 03:06:09;;;;;;;3.17;2.22;;;;;;;;;;6317723;28;20059;-70
2022/05/29 03:09:18;;;;;;;3.67;2.40;;;;;;;;;;6318819;28;20043;-70
2022/05/29 03:12:27;;;;;;;3.15;2.38;;;;;;;;;;6319408;28;20044;-70
2022/05/29 03:15:37;;;;;;;3.45;2.00;;;;;;;;;;6318410;28;20094;-70
2022/05/29 03:18:50;;;;;;;3.80;2.65;;;;;;;;;;6324560;28;20056;-70
2022/05/29 03:22:00;;;;;;;3.20;2.40;;;;;;;;;;6316689;28;20227;-70
2022/05/29 03:25:03;;;;;;;5.18;2.35;;;;;;;;;;6318002;28;20145;-70
2022/05/29 03:28:08;;;;;;;3.80;2.30;;;;;;;;;;6312972;28;20060;-70
2022/05/29 03:31:13;;;;;;;3.88;2.10;;;;;;;;;;6317689;27;20056;-70
2022/05/29 03:34:16;;;;;;;3.08;2.00;;;;;;;;;;6320078;28;20050;-69
2022/05/29 03:37:18;;;;;;;3.47;1.90;;;;;;;;;;6321693;27;20071;-70
2022/05/29 03:40:20;;;;;;;2.72;2.00;;;;;;;;;;6316767;28;20067;-70
2022/05/29 03:43:21;;;;;;;2.35;1.80;;;;;;;;;;6320708;27;20052;-70
2022/05/29 03:46:23;;;;;;;2.88;1.77;;;;;;;;;;6319622;28;20405;-70
2022/05/29 03:49:26;;;;;;;2.65;1.70;;;;;;;;;;6321116;28;20369;-70
2022/05/29 03:52:28;;;;;;;2.77;2.07;;;;;;;;;;6317247;28;20055;-70
2022/05/29 03:55:30;;;;;;;2.55;1.77;;;;;;;;;;6312549;28;20365;-70
2022/05/29 03:58:32;;;;;;;2.78;2.00;;;;;;;;;;6319625;28;20090;-70
2022/05/29 04:01:34;;;;;;;6.57;2.38;;;;;;;;;;6314683;28;20046;-70
2022/05/29 04:04:37;;;;;;;3.55;1.88;;;;;;;;;;6318542;28;20103;-70
2022/05/29 04:14:17;;;;;;;2.92;2.10;;;;;;;;;;6316229;28;20044;-71
2022/05/29 04:17:20;;;;;;;3.05;1.77;;;;;;;;;;6321523;28;20049;-70
2022/05/29 04:20:23;;;;;;;3.60;1.93;;;;;;;;;;6320309;28;20055;-70
2022/05/29 04:23:25;;;;;;;2.20;1.80;;;;;;;;;;6318394;28;20060;-69
2022/05/29 04:26:27;;;;;;;4.40;1.70;;;;;;;;;;6317774;28;20079;-69
2022/05/29 04:29:29;;;;;;;3.00;1.60;;;;;;;;;;6317848;27;20040;-70
2022/05/29 04:35:53;;;;;;;3.05;2.15;;;;;;;;;;6315581;27;20048;-70
2022/05/29 04:38:55;;;;;;;2.45;1.52;;;;;;;;;;6316514;28;20048;-70
2022/05/29 04:41:57;;;;;;;4.75;2.10;;;;;;;;;;6314629;28;20158;-70
2022/05/29 04:44:58;;;;;;;3.10;1.90;;;;;;;;;;6317106;28;20040;-70
2022/05/29 04:48:00;;;;;;;2.95;1.67;;;;;;;;;;6317711;28;20048;-70
2022/05/29 04:51:05;;;;;;;3.08;2.08;;;;;;;;;;6316162;28;20056;-70
2022/05/29 04:54:07;;;;;;;3.28;1.88;;;;;;;;;;6312264;28;20044;-70
2022/05/29 04:57:10;;;;;;;2.00;1.67;;;;;;;;;;6316669;28;20119;-70
2022/05/29 05:00:12;;;;;;;3.83;1.77;;;;;;;;;;6314771;28;20052;-70
2022/05/29 05:03:14;;;;;;;3.38;1.67;;;;;;;;;;6317092;28;20393;-70
2022/05/29 05:06:17;;;;;;;2.70;1.85;;;;;;;;;;6318152;28;20266;-70
2022/05/29 05:09:19;;;;;;;3.15;1.88;;;;;;;;;;6315885;28;20055;-70
2022/05/29 05:12:20;;;;;;;2.90;1.67;;;;;;;;;;6318361;27;20047;-70
2022/05/29 05:15:22;;;;;;;3.72;2.00;;;;;;;;;;6314589;27;20056;-70
2022/05/29 05:18:24;;;;;;;3.00;1.65;;;;;;;;;;6312273;28;20051;-70
2022/05/29 05:21:27;;;;;;;3.35;1.50;;;;;;;;;;6315743;28;20060;-70
2022/05/29 05:24:28;;;;;;;4.10;1.70;;;;;;;;;;6323187;28;20063;-70
2022/05/29 05:27:30;;;;;;;2.58;1.83;;;;;;;;;;6322492;28;20056;-70
2022/05/29 05:30:32;;;;;;;2.97;1.98;;;;;;;;;;6319516;28;20119;-68
2022/05/29 05:33:34;;;;;;;5.93;1.75;;;;;;;;;;6319703;28;20052;-72
2022/05/29 05:36:37;;;;;;;3.38;1.92;;;;;;;;;;6313737;28;20161;-71
2022/05/29 05:39:39;;;;;;;2.50;1.80;;;;;;;;;;6315196;28;20261;-71
2022/05/29 05:42:40;;;;;;;2.58;1.83;;;;;;;;;;6315921;28;20330;-70
2022/05/29 05:45:43;;;;;;;2.17;1.50;;;;;;;;;;6315631;28;20327;-72
2022/05/29 05:48:44;;;;;;;2.92;1.60;;;;;;;;;;6312494;28;20251;-71
2022/05/29 05:51:48;;;;;;;3.20;1.50;;;;;;;;;;6317449;28;20321;-72
2022/05/29 05:54:49;;;;;;;2.78;1.85;;;;;;;;;;6317301;27;20070;-72
2022/05/29 05:57:51;;;;;;;1.85;1.38;;;;;;;;;;6318488;28;20064;-71
2022/05/29 06:00:52;;;;;;;4.72;1.67;;;;;;;;;;6318142;27;20111;-73
2022/05/29 06:03:54;;;;;;;2.50;1.80;;;;;;;;;;6315976;27;20337;-73
2022/05/29 06:06:57;;;;;;;1.98;1.77;;;;;;;;;;6318711;28;20052;-72
2022/05/29 06:09:59;;;;;;;2.90;1.93;;;;;;;;;;6314330;28;20048;-70
2022/05/29 06:13:01;;;;;;;2.25;1.67;;;;;;;;;;6315191;28;20227;-72
2022/05/29 06:16:04;;;;;;;2.90;1.85;;;;;;;;;;6317122;28;20045;-71
2022/05/29 06:19:06;;;;;;;2.33;1.67;;;;;;;;;;6320022;27;20205;-73
2022/05/29 06:22:09;;;;;;;103.78;8.98;;;;;;;;;;6317912;28;20052;-72
2022/05/29 06:25:11;;;;;;;;;;;;;;;;;;6318387;27;20059;-73
2022/05/29 06:28:13;;;;;;;28.98;3.03;;;;;;;;;;6317212;28;20175;-73
2022/05/29 06:31:14;;;;;;;5.70;1.95;;;;;;;;;;6319908;28;20094;-74
2022/05/29 06:34:16;;;;;;;5.25;2.38;;;;;;;;;;6324720;28;20043;-75
2022/05/29 06:37:19;;;;;;;2.90;1.52;;;;;;;;;;6325851;28;20052;-75
2022/05/29 06:40:21;;;;;;;2.00;1.67;;;;;;;;;;6326036;28;20327;-75
2022/05/29 06:43:23;;;;;;;2.22;1.70;;;;;;;;;;6316661;28;20316;-75
2022/05/29 06:46:25;;;;;;;3.42;1.52;;;;;;;;;;6319588;28;20048;-74
2022/05/29 06:49:26;;;;;;;5.88;1.83;;;;;;;;;;6317839;28;20068;-75
2022/05/29 06:52:31;;;;;;;3.63;1.90;;;;;;;;;;6316227;28;20090;-74
2022/05/29 06:55:32;;;;;;;;;;;;;;;;;;6316573;28;20054;-74
2022/05/29 06:58:34;;;;;;;;;;;;;;;;;;6319622;28;19969;-74
2022/05/29 07:08:15;;;;;;;5.55;1.70;;;;;;;;;;6318345;28;20048;-73
2022/05/29 07:11:20;;;;;;;4.30;1.97;;;;;;;;;;6318535;28;20067;-73
2022/05/29 07:14:22;;;;;;;3.22;1.77;;;;;;;;;;6317847;28;20059;-74
2022/05/29 07:17:24;;;;;;;3.05;1.75;;;;;;;;;;6319849;28;20097;-74
2022/05/29 07:20:25;;;;;;;2.72;1.70;;;;;;;;;;6314825;28;20058;-74
2022/05/29 07:23:28;;;;;;;2.00;1.70;;;;;;;;;;6315947;27;20094;-73
2022/05/29 07:26:30;;;;;;;2.35;1.73;;;;;;;;;;6320390;28;20070;-74
2022/05/29 07:29:32;;;;;;;3.13;1.80;;;;;;;;;;6317259;28;20102;-74
2022/05/29 07:32:34;;;;;;;2.75;1.58;;;;;;;;;;6322464;28;20066;-74
2022/05/29 07:35:36;;;;;;;2.97;1.70;;;;;;;;;;6316692;28;20300;-74
2022/05/29 07:38:40;;;;;;;2.80;1.92;;;;;;;;;;6316732;28;20090;-74
2022/05/29 07:45:01;;;;;;;2.28;1.70;;;;;;;;;;6317482;28;20044;-74
2022/05/29 07:48:02;;;;;;;8.35;1.85;;;;;;;;;;6317621;27;20067;-72
2022/05/29 07:51:04;;;;;;;2.58;1.75;;;;;;;;;;6318754;28;20062;-73
2022/05/29 07:54:07;;;;;;;6.95;1.65;;;;;;;;;;6319402;28;20044;-73
2022/05/29 07:57:09;;;;;;;4.90;1.70;;;;;;;;;;6319638;28;20238;-73
2022/05/29 08:00:13;;;;;;;2.28;1.63;;;;;;;;;;6318317;28;20064;-73
2022/05/29 08:03:14;;;;;;;2.92;1.58;;;;;;;;;;6312412;27;20050;-73
2022/05/29 08:06:16;;;;;;;2.47;2.00;;;;;;;;;;6319091;28;20051;-73
2022/05/29 08:09:19;;;;;;;2.97;1.52;;;;;;;;;;6317764;28;20044;-74
2022/05/29 08:12:21;;;;;;;2.77;1.97;;;;;;;;;;6317665;28;20052;-74
2022/05/29 08:15:23;;;;;;;5.45;1.90;;;;;;;;;;6317109;27;20473;-74
2022/05/29 08:18:25;;;;;;;1.83;1.52;;;;;;;;;;6318629;27;20047;-73
2022/05/29 08:21:27;;;;;;;3.08;1.95;;;;;;;;;;6311869;28;20107;-73
2022/05/29 08:31:08;;;;;;;2.95;1.58;;;;;;;;;;6317159;28;20071;-73
2022/05/29 08:34:09;;;;;;;3.28;1.95;;;;;;;;;;6317139;28;20069;-73
2022/05/29 08:37:11;;;;;;;3.58;2.10;;;;;;;;;;6315331;28;20083;-73
2022/05/29 08:40:14;;;;;;;2.78;2.30;;;;;;;;;;6318988;28;20044;-73
2022/05/29 08:43:25;;;;;;;2.75;1.67;;;;;;;;;;6315877;27;20048;-73
2022/05/29 08:46:31;;;;;;;4.35;2.05;;;;;;;;;;6313005;27;20103;-73
2022/05/29 08:49:35;;;;;;;3.15;1.85;;;;;;;;;;6315784;28;20048;-73
2022/05/29 08:52:46;;;;;;;3.67;2.22;;;;;;;;;;6314745;27;20201;-73
2022/05/29 08:55:52;;;;;;;2.92;1.75;;;;;;;;;;6319014;28;20105;-73
2022/05/29 08:59:07;;;;;;;2.13;1.75;;;;;;;;;;6318419;28;20227;-73
2022/05/29 09:02:19;;;;;;;5.05;1.88;;;;;;;;;;6316693;28;20035;-73
2022/05/29 09:05:28;;;;;;;2.22;1.60;;;;;;;;;;6318689;28;20098;-73
2022/05/29 09:08:35;;;;;;;2.65;1.88;;;;;;;;;;6314868;28;20044;-73
2022/05/29 09:11:42;;;;;;;3.45;2.00;;;;;;;;;;6314062;27;20044;-73
2022/05/29 09:14:48;;;;;;;5.30;1.85;;;;;;;;;;6318238;28;20052;-74
2022/05/29 09:17:51;;;;;;;2.25;1.80;;;;;;;;;;6319680;28;20052;-74
2022/05/29 09:20:59;;;;;;;2.67;1.83;;;;;;;;;;6315374;28;20044;-73
2022/05/29 09:24:06;;;;;;;3.20;1.90;;;;;;;;;;6316474;28;20047;-73
2022/05/29 09:27:11;;;;;;;4.20;1.85;;;;;;;;;;6312669;28;20053;-73
2022/05/29 09:30:12;;;;;;;3.03;1.77;;;;;;;;;;6313979;28;20063;-73
2022/05/29 09:33:16;;;;;;;2.22;1.80;;;;;;;;;;6319169;28;20358;-73
2022/05/29 09:36:23;;;;;;;5.43;1.90;;;;;;;;;;6320940;28;20043;-74
2022/05/29 09:39:28;;;;;;;2.35;1.90;;;;;;;;;;6321448;28;20136;-73
2022/05/29 09:42:35;;;;;;;2.92;1.73;;;;;;;;;;6320918;28;20048;-73
2022/05/29 09:45:37;;;;;;;3.83;1.80;;;;;;;;;;6319777;28;20047;-73
2022/05/29 09:52:05;;;;;;;2.50;1.80;;;;;;;;;;6323350;28;20040;-73
2022/05/29 09:55:19;;;;;;;2.35;1.83;;;;;;;;;;6317266;28;20193;-72
2022/05/29 09:58:27;;;;;;;4.32;2.00;;;;;;;;;;6321117;27;20063;-73
2022/05/29 10:01:32;;;;;;;4.05;2.13;;;;;;;;;;6322375;27;20059;-73
2022/05/29 10:04:37;;;;;;;3.05;1.92;;;;;;;;;;6318206;28;20057;-72
2022/05/29 10:07:42;;;;;;;2.97;1.77;;;;;;;;;;6319174;28;20039;-73
2022/05/29 10:10:43;;;;;;;3.28;2.10;;;;;;;;;;6318567;28;20329;-72
2022/05/29 10:13:47;;;;;;;3.00;2.20;;;;;;;;;;6318052;27;20063;-72
2022/05/29 10:16:49;;;;;;;;;;;;;;;;;;6318303;28;20066;-72
2022/05/29 10:19:51;;;;;;;3.88;1.85;;;;;;;;;;6319754;28;19920;-73
2022/05/29 10:22:54;;;;;;;3.45;2.00;;;;;;;;;;6319776;28;20079;-73
2022/05/29 10:25:58;;;;;;;2.50;2.03;;;;;;;;;;6319170;28;20056;-72
2022/05/29 10:29:02;;;;;;;5.28;1.98;;;;;;;;;;6319930;28;20345;-73
2022/05/29 10:32:06;;;;;;;3.85;2.10;;;;;;;;;;6326535;28;20422;-74
2022/05/29 10:35:22;;;;;;;2.97;2.10;;;;;;;;;;6321914;28;20059;-73
2022/05/29 10:38:28;;;;;;;3.92;1.98;;;;;;;;;;6321379;28;20052;-73
2022/05/29 10:41:34;;;;;;;2.97;2.08;;;;;;;;;;6322923;27;20085;-73
2022/05/29 10:44:40;;;;;;;3.22;1.92;;;;;;;;;;6318351;28;20327;-74
2022/05/29 10:47:49;;;;;;;5.30;2.33;;;;;;;;;;6316136;28;20159;-73
2022/05/29 10:51:00;;;;;;;5.70;2.35;;;;;;;;;;6318336;28;20052;-74
2022/05/29 10:54:12;;;;;;;4.72;2.20;;;;;;;;;;6320614;28;20103;-72
2022/05/29 10:57:25;;;;;;;2.83;1.75;;;;;;;;;;6318848;28;20048;-73
2022/05/29 11:00:40;;;;;;;3.65;2.00;;;;;;;;;;6321184;28;20048;-73
2022/05/29 11:03:52;;;;;;;4.40;2.20;;;;;;;;;;6321155;28;20058;-73
2022/05/29 11:07:09;;;;;;;2.85;2.05;;;;;;;;;;6318513;28;20052;-73
2022/05/29 11:10:24;;;;;;;8.18;2.30;;;;;;;;;;6317410;28;20047;-73
2022/05/29 11:13:47;;;;;;;4.78;2.10;;;;;;;;;;6314286;27;20373;-73
2022/05/29 11:17:01;;;;;;;2.22;1.88;;;;;;;;;;6318210;28;20093;-73
2022/05/29 11:20:17;;;;;;;3.90;1.90;;;;;;;;;;6323995;28;20111;-73
2022/05/29 11:23:33;;;;;;;2.90;1.95;;;;;;;;;;6325757;28;20043;-71
2022/05/29 11:26:43;;;;;;;3.55;2.20;;;;;;;;;;6325285;28;20107;-73
2022/05/29 11:30:04;;;;;;;2.90;1.83;;;;;;;;;;6325226;28;20044;-72
2022/05/29 11:33:18;;;;;;;3.00;2.10;;;;;;;;;;6324091;28;20047;-74
2022/05/29 11:36:40;;;;;;;2.72;2.10;;;;;;;;;;6323282;28;20123;-73
2022/05/29 11:39:44;;;;;;;3.40;1.80;;;;;;;;;;6326008;28;20060;-72
2022/05/29 11:42:50;;;;;;;2.65;1.75;;;;;;;;;;6325017;28;20285;-71
2022/05/29 11:52:43;;;;;;;2.80;2.10;;;;;;;;;;6323031;28;20350;-75
2022/05/29 11:55:46;;;;;;;2.35;1.83;;;;;;;;;;6321014;28;20229;-74
2022/05/29 11:58:49;;;;;;;2.83;1.90;;;;;;;;;;6320608;28;20056;-74
2022/05/29 12:01:56;;;;;;;3.10;1.98;;;;;;;;;;6324231;28;20048;-74
2022/05/29 12:05:07;;;;;;;4.72;1.70;;;;;;;;;;6323101;28;20257;-74
2022/05/29 12:08:12;;;;;;;2.63;2.00;;;;;;;;;;6324153;27;20048;-74
2022/05/29 12:11:32;;;;;;;2.58;1.65;;;;;;;;;;6323228;28;20066;-74
2022/05/29 12:14:37;;;;;;;2.33;1.52;;;;;;;;;;6327437;28;20059;-74
2022/05/29 12:17:43;;;;;;;3.05;2.03;;;;;;;;;;6324010;28;20056;-74
2022/05/29 12:20:50;;;;;;;5.07;1.98;;;;;;;;;;6326905;28;20114;-74
2022/05/29 12:23:53;;;;;;;2.13;1.60;;;;;;;;;;6323767;27;20089;-74
2022/05/29 12:26:57;;;;;;;;;;;;;;;;;;6322248;28;20225;-72
2022/05/29 12:29:58;;;;;;;;;;;;;;;;;;6325663;28;19924;-75
2022/05/29 12:33:02;;;;;;;3.10;1.80;;;;;;;;;;6323503;28;19924;-74
2022/05/29 12:36:20;;;;;;;2.78;2.05;;;;;;;;;;6325436;28;20093;-74
2022/05/29 12:39:31;;;;;;;3.63;1.67;;;;;;;;;;6321977;28;20060;-73
2022/05/29 12:42:49;;;;;;;2.60;1.80;;;;;;;;;;6324008;28;20058;-73
2022/05/29 12:45:59;;;;;;;2.17;1.67;;;;;;;;;;6323045;28;20051;-73
2022/05/29 12:49:19;;;;;;;2.15;1.70;;;;;;;;;;6324881;28;20392;-72
2022/05/29 12:52:23;;;;;;;3.67;1.90;;;;;;;;;;6305833;28;20071;-73
2022/05/29 12:55:42;;;;;;;3.30;1.90;;;;;;;;;;6302847;28;20045;-73
2022/05/29 12:58:52;;;;;;;2.53;1.50;;;;;;;;;;6292369;28;20053;-72
2022/05/29 13:02:04;;;;;;;4.35;1.73;;;;;;;;;;6292895;28;20040;-73
2022/05/29 13:05:29;;;;;;;1.80;1.45;;;;;;;;;;6299269;28;20068;-74
2022/05/29 13:08:54;;;;;;;2.55;1.38;;;;;;;;;;6307380;28;20050;-73
2022/05/29 13:12:00;;;;;;;2.92;1.85;;;;;;;;;;6311391;28;20052;-73
2022/05/29 13:15:06;;;;;;;3.03;1.90;;;;;;;;;;6296271;28;20048;-73
2022/05/29 13:18:18;;;;;;;4.80;2.60;;;;;;;;;;6290740;28;20094;-71
2022/05/29 13:21:20;;;;;;;3.47;2.30;;;;;;;;;;6290806;28;20102;-73
2022/05/29 13:24:24;;;;;;;4.07;2.45;;;;;;;;;;6296669;28;20065;-73
2022/05/29 13:27:32;;;;;;;3.80;2.70;;;;;;;;;;6298719;28;20067;-72
2022/05/29 13:31:12;;;;;;;4.20;2.10;;;;;;;;;;6297950;28;20230;-73
2022/05/29 13:34:27;;;;;;;2.85;2.13;;;;;;;;;;6320710;27;20043;-72
2022/05/29 13:37:39;;;;;;;2.40;1.90;;;;;;;;;;6296352;28;20270;-71
2022/05/29 13:40:48;;;;;;;3.03;2.72;;;;;;;;;;6299663;28;20238;-72
2022/05/29 13:43:49;;;;;;;4.75;2.88;;;;;;;;;;6298407;28;20056;-72
2022/05/29 13:47:27;;;;;;;3.42;3.10;;;;;;;;;;6289945;28;20091;-72
2022/05/29 13:50:34;;;;;;;3.05;2.75;;;;;;;;;;6292662;28;20236;-72
2022/05/29 13:53:56;;;;;;;4.25;2.95;;;;;;;;;;6269371;28;20057;-72
2022/05/29 13:57:02;;;;;;;3.58;2.95;;;;;;;;;;6295727;28;20055;-71
2022/05/29 14:06:44;;;;;;;4.68;2.92;;;;;;;;;;6270396;28;20052;-72
2022/05/29 14:10:17;;;;;;;3.13;2.90;;;;;;;;;;6291002;28;20045;-70
2022/05/29 14:13:33;;;;;;;4.53;3.20;;;;;;;;;;6285101;28;20078;-70
2022/05/29 14:16:41;;;;;;;3.35;3.05;;;;;;;;;;6293009;28;20331;-71
2022/05/29 14:20:05;;;;;;;4.78;3.80;;;;;;;;;;6294240;28;20107;-69
2022/05/29 14:23:29;;;;;;;6.50;3.78;;;;;;;;;;6286522;28;20106;-71
2022/05/29 14:26:45;;;;;;;4.63;3.28;;;;;;;;;;6293429;28;20320;-71
2022/05/29 14:30:19;;;;;;;4.90;3.30;;;;;;;;;;6291102;28;20055;-71
2022/05/29 14:33:37;;;;;;;6.95;3.92;;;;;;;;;;6293598;28;20066;-71
2022/05/29 14:37:06;;;;;;;4.20;3.60;;;;;;;;;;6292392;28;20099;-73
2022/05/29 14:40:12;;;;;;;6.50;4.05;;;;;;;;;;6294629;28;20048;-70
2022/05/29 14:43:16;;;;;;;4.75;3.45;;;;;;;;;;6290359;28;20067;-71
2022/05/29 14:46:29;;;;;;;7.55;3.97;;;;;;;;;;6292124;28;20332;-70
2022/05/29 14:49:41;;;;;;;5.40;3.83;;;;;;;;;;6294352;28;20090;-70
2022/05/29 14:52:55;;;;;;;5.93;3.80;;;;;;;;;;6294208;28;20044;-71
2022/05/29 14:56:00;;;;;;;5.50;3.78;;;;;;;;;;6293544;28;20051;-70
2022/05/29 14:59:15;;;;;;;6.15;3.90;;;;;;;;;;6292894;28;20267;-70
2022/05/29 15:02:27;;;;;;;5.30;4.03;;;;;;;;;;6295623;28;20331;-70
2022/05/29 15:05:30;;;;;;;7.07;3.78;;;;;;;;;;6284828;28;20102;-70
2022/05/29 15:11:58;;;;;;;9.02;3.10;;;;;;;;;;6293885;28;20067;-70
2022/05/29 15:15:23;;;;;;;4.88;3.10;;;;;;;;;;6295522;28;20055;-70
2022/05/29 15:18:29;;;;;;;4.30;3.20;;;;;;;;;;6295790;28;20060;-71
2022/05/29 15:24:53;;;;;;;4.85;2.50;;;;;;;;;;6295314;28;20052;-72
2022/05/29 15:27:57;;;;;;;3.63;2.75;;;;;;;;;;6291578;28;20056;-71
2022/05/29 15:31:00;;;;;;;4.53;2.75;;;;;;;;;;6293139;28;20056;-70
2022/05/29 15:34:28;;;;;;;6.13;3.13;;;;;;;;;;6296691;28;20045;-74
2022/05/29 15:37:39;;;;;;;3.63;2.65;;;;;;;;;;6292032;28;20098;-72
2022/05/29 15:40:50;;;;;;;4.10;2.42;;;;;;;;;;6293533;28;20041;-72
2022/05/29 15:43:58;;;;;;;4.45;2.50;;;;;;;;;;6291577;28;20205;-72
2022/05/29 15:47:10;;;;;;;5.80;2.50;;;;;;;;;;6296385;28;20229;-74
2022/05/29 15:50:36;;;;;;;4.05;2.85;;;;;;;;;;6295207;28;20140;-73
2022/05/29 15:54:02;;;;;;;5.10;3.33;;;;;;;;;;6286168;28;20040;-75
2022/05/29 15:57:09;;;;;;;5.47;2.60;;;;;;;;;;6296443;28;20048;-74
2022/05/29 16:00:13;;;;;;;3.75;2.60;;;;;;;;;;6291029;28;20055;-72
2022/05/29 16:03:15;;;;;;;8.50;2.55;;;;;;;;;;6292940;28;20116;-73
2022/05/29 16:06:20;;;;;;;3.25;2.53;;;;;;;;;;6287783;28;20056;-73
2022/05/29 16:09:22;;;;;;;2.75;1.95;;;;;;;;;;6286490;28;20195;-74
2022/05/29 16:12:24;;;;;;;3.05;2.00;;;;;;;;;;6296700;28;20295;-74
2022/05/29 16:16:04;;;;;;;4.25;2.10;;;;;;;;;;6286571;28;20060;-72
2022/05/29 16:19:34;;;;;;;3.45;2.08;;;;;;;;;;6293435;28;20245;-72
2022/05/29 16:22:43;;;;;;;5.30;2.38;;;;;;;;;;6282100;28;20967;-72
2022/05/29 16:25:51;;;;;;;2.33;2.00;;;;;;;;;;6294243;28;20048;-75
2022/05/29 16:28:57;;;;;;;4.30;1.90;;;;;;;;;;6295287;28;20047;-75
2022/05/29 16:32:03;;;;;;;3.58;2.13;;;;;;;;;;6292539;28;20314;-73
2022/05/29 16:35:08;;;;;;;3.58;2.00;;;;;;;;;;6292801;28;20056;-73
2022/05/29 16:48:37;;;;;;;2.58;1.95;;;;;;;;;;6288944;28;20040;-72
2022/05/29 16:51:54;;;;;;;5.07;1.98;;;;;;;;;;6290912;28;20041;-72
2022/05/29 16:55:01;;;;;;;2.42;1.75;;;;;;;;;;6295689;28;20251;-73
2022/05/29 16:58:04;;;;;;;3.22;1.88;;;;;;;;;;6291432;28;20068;-72
2022/05/29 17:01:10;;;;;;;3.60;1.70;;;;;;;;;;6292958;28;20071;-72
2022/05/29 17:04:21;;;;;;;2.63;1.70;;;;;;;;;;6290717;28;20044;-72
2022/05/29 17:07:24;;;;;;;2.90;1.60;;;;;;;;;;6288737;28;20317;-74
2022/05/29 17:10:30;;;;;;;3.58;1.90;;;;;;;;;;6295334;28;20115;-74
2022/05/29 17:13:32;;;;;;;4.90;1.67;;;;;;;;;;6291128;28;20213;-74
2022/05/29 17:16:34;;;;;;;3.47;1.55;;;;;;;;;;6291511;28;20213;-75
2022/05/29 17:19:37;;;;;;;2.20;1.50;;;;;;;;;;6286897;28;20097;-74
2022/05/29 17:22:44;;;;;;;2.92;1.70;;;;;;;;;;6288226;28;20049;-74
2022/05/29 17:25:51;;;;;;;4.53;2.00;;;;;;;;;;6285631;28;20063;-74
2022/05/29 17:29:00;;;;;;;2.92;1.73;;;;;;;;;;6288379;28;20056;-73
2022/05/29 17:32:07;;;;;;;3.15;2.03;;;;;;;;;;6288913;28;20040;-74
2022/05/29 17:35:12;;;;;;;2.63;1.73;;;;;;;;;;6286064;28;20049;-74
2022/05/29 17:38:18;;;;;;;3.05;1.40;;;;;;;;;;6295263;28;20103;-74
2022/05/29 17:41:23;;;;;;;2.00;1.40;;;;;;;;;;6286358;28;20147;-74
2022/05/29 17:44:25;;;;;;;3.28;1.85;;;;;;;;;;6286019;28;20111;-74
2022/05/29 17:47:35;;;;;;;5.47;2.03;;;;;;;;;;6291176;28;20064;-74
2022/05/29 17:50:42;;;;;;;2.20;1.90;;;;;;;;;;6291661;28;20076;-74
2022/05/29 17:53:59;;;;;;;2.67;2.28;;;;;;;;;;6293184;28;20079;-72
2022/05/29 17:57:02;;;;;;;5.15;2.53;;;;;;;;;;6294397;28;20044;-73
2022/05/29 18:00:06;;;;;;;3.65;2.30;;;;;;;;;;6295649;28;20098;-74
2022/05/29 18:03:11;;;;;;;3.13;2.08;;;;;;;;;;6297613;28;20048;-71
2022/05/29 18:06:12;;;;;;;4.82;2.63;;;;;;;;;;6298089;28;20053;-73
2022/05/29 18:09:14;;;;;;;4.63;2.65;;;;;;;;;;6292043;28;20098;-72
2022/05/29 18:12:20;;;;;;;3.22;2.30;;;;;;;;;;6298389;28;20154;-72
2022/05/29 18:15:22;;;;;;;3.58;2.42;;;;;;;;;;6298959;28;20343;-75
2022/05/29 18:18:24;;;;;;;3.83;2.33;;;;;;;;;;6295734;28;20099;-73
2022/05/29 18:21:25;;;;;;;4.45;2.20;;;;;;;;;;6297830;28;20053;-74
2022/05/29 18:24:27;;;;;;;4.18;2.20;;;;;;;;;;6297438;28;20057;-76
2022/05/29 18:27:30;;;;;;;5.88;2.15;;;;;;;;;;6293281;28;20047;-70
2022/05/29 18:30:32;;;;;;;10.70;2.88;;;;;;;;;;6302599;28;20060;-72
2022/05/29 18:33:34;;;;;;;2.33;2.00;;;;;;;;;;6304704;28;20052;-71
2022/05/29 18:36:35;;;;;;;3.22;2.40;;;;;;;;;;6302928;28;20063;-72
2022/05/29 18:39:37;;;;;;;3.67;2.30;;;;;;;;;;6299523;28;20056;-72
2022/05/29 18:42:40;;;;;;;6.53;2.58;;;;;;;;;;6299937;28;20098;-72
2022/05/29 18:45:42;;;;;;;3.97;2.53;;;;;;;;;;6297114;28;20052;-71
2022/05/29 18:48:43;;;;;;;2.97;2.00;;;;;;;;;;6303301;28;20478;-72
2022/05/29 18:51:45;;;;;;;3.88;2.15;;;;;;;;;;6302453;28;20052;-76
2022/05/29 18:54:47;;;;;;;3.70;2.30;;;;;;;;;;6301300;28;20052;-73
2022/05/29 18:57:50;;;;;;;3.70;2.42;;;;;;;;;;6297222;28;20041;-76
2022/05/29 19:00:52;;;;;;;3.58;2.38;;;;;;;;;;6295810;28;20102;-74
2022/05/29 19:03:53;;;;;;;3.38;2.33;;;;;;;;;;6293900;28;20077;-75
2022/05/29 19:06:55;;;;;;;8.00;2.50;;;;;;;;;;6297017;28;20048;-74
2022/05/29 19:09:58;;;;;;;4.65;2.38;;;;;;;;;;6301798;28;20052;-75
2022/05/29 19:13:00;;;;;;;5.63;3.60;;;;;;;;;;6297253;28;20048;-74
2022/05/29 19:16:07;;;;;;;5.67;3.60;;;;;;;;;;6302293;28;20075;-74
2022/05/29 19:19:11;;;;;;;4.85;3.63;;;;;;;;;;6296942;28;20077;-74
2022/05/29 19:22:13;;;;;;;6.38;3.67;;;;;;;;;;6303084;28;20052;-74
2022/05/29 19:25:15;;;;;;;5.28;3.58;;;;;;;;;;6303268;28;20209;-73
2022/05/29 19:28:18;;;;;;;7.43;3.53;;;;;;;;;;6302219;28;20040;-75
2022/05/29 19:31:21;;;;;;;8.30;3.65;;;;;;;;;;6297181;28;20056;-75
2022/05/29 19:34:23;;;;;;;4.47;3.33;;;;;;;;;;6299238;28;20061;-76
2022/05/29 19:37:24;;;;;;;7.15;3.63;;;;;;;;;;6300892;28;20052;-74
2022/05/29 19:40:26;;;;;;;4.03;3.33;;;;;;;;;;6297166;28;20232;-74
2022/05/29 19:43:29;;;;;;;6.90;3.80;;;;;;;;;;6298381;28;20048;-75